DBOBS EDJA-EDHL
Flight info
| Callsign | DBOBS |
|---|---|
| Flight time | 1h 28m |
| Altitude | 34000 |
| Route | LUPO5A LUPOL DITBA CI25 LBU ROLSO RIMKI LOHRE MASEK NORTA SAS UGLOM NOLGO NOLG2R |
| Aircraft | EPIC/L-SBGRY/LB1 |
Departure
| Time | 2026-04-26 12:09 |
|---|---|
| Airport | Memmingen Allgau Airport (EDJA) |
Arrival
| Time | 2026-04-26 13:37 |
|---|---|
| Airport | Lübeck Blankensee Airport (EDHL) |
| Time | Latitude | Longitude | Altitude | Speed | Heading |
|---|---|---|---|---|---|
| 2026-04-26 11:51 | 47.98634 | 10.23701 | 2063 ft | 0 kts | 325° |
| 2026-04-26 12:04 | 47.98640 | 10.23696 | 2063 ft | 3 kts | 327° |
| 2026-04-26 12:04 | 47.98661 | 10.23681 | 2063 ft | 7 kts | 1° |
| 2026-04-26 12:05 | 47.98701 | 10.23753 | 2062 ft | 14 kts | 59° |
| 2026-04-26 12:05 | 47.98755 | 10.23891 | 2060 ft | 19 kts | 59° |
| 2026-04-26 12:05 | 47.98840 | 10.24107 | 2058 ft | 15 kts | 58° |
| 2026-04-26 12:05 | 47.98901 | 10.24258 | 2056 ft | 17 kts | 59° |
| 2026-04-26 12:06 | 47.98965 | 10.24421 | 2054 ft | 19 kts | 57° |
| 2026-04-26 12:06 | 47.99033 | 10.24596 | 2052 ft | 19 kts | 59° |
| 2026-04-26 12:06 | 47.99104 | 10.24776 | 2050 ft | 20 kts | 59° |
| 2026-04-26 12:06 | 47.99175 | 10.24944 | 2049 ft | 8 kts | 22° |
| 2026-04-26 12:07 | 47.99180 | 10.24944 | 2049 ft | 0 kts | 327° |
| 2026-04-26 12:07 | 47.99180 | 10.24943 | 2049 ft | 0 kts | 327° |
| 2026-04-26 12:07 | 47.99200 | 10.24917 | 2049 ft | 7 kts | 321° |
| 2026-04-26 12:08 | 47.99221 | 10.24824 | 2049 ft | 17 kts | 239° |
| 2026-04-26 12:08 | 47.99126 | 10.24589 | 2051 ft | 48 kts | 242° |
| 2026-04-26 12:08 | 47.98833 | 10.23833 | 2066 ft | 111 kts | 243° |
| 2026-04-26 12:08 | 47.98428 | 10.22704 | 2198 ft | 141 kts | 235° |
| 2026-04-26 12:09 | 47.97895 | 10.21295 | 2526 ft | 163 kts | 240° |
| 2026-04-26 12:09 | 47.97305 | 10.19855 | 3093 ft | 167 kts | 238° |
| 2026-04-26 12:09 | 47.96702 | 10.18366 | 3681 ft | 169 kts | 238° |
| 2026-04-26 12:09 | 47.96132 | 10.16957 | 4054 ft | 150 kts | 239° |
| 2026-04-26 12:10 | 47.95612 | 10.15662 | 3994 ft | 138 kts | 240° |
| 2026-04-26 12:10 | 47.95073 | 10.14309 | 4080 ft | 164 kts | 238° |
| 2026-04-26 12:10 | 47.94478 | 10.12837 | 4499 ft | 171 kts | 238° |
| 2026-04-26 12:10 | 47.93862 | 10.11307 | 5073 ft | 174 kts | 238° |
| 2026-04-26 12:11 | 47.93256 | 10.09801 | 5883 ft | 174 kts | 237° |
| 2026-04-26 12:11 | 47.92777 | 10.08216 | 6766 ft | 173 kts | 264° |
| 2026-04-26 12:11 | 47.93074 | 10.06576 | 7647 ft | 169 kts | 308° |
| 2026-04-26 12:11 | 47.93869 | 10.05336 | 8550 ft | 168 kts | 313° |
| 2026-04-26 12:12 | 47.94667 | 10.04103 | 9446 ft | 171 kts | 313° |
| 2026-04-26 12:12 | 47.95478 | 10.02848 | 10373 ft | 173 kts | 312° |
| 2026-04-26 12:12 | 47.96289 | 10.01593 | 11281 ft | 175 kts | 312° |
| 2026-04-26 12:12 | 47.96854 | 10.00718 | 11900 ft | 177 kts | 312° |
| 2026-04-26 12:13 | 47.98020 | 9.99076 | 12901 ft | 184 kts | 332° |
| 2026-04-26 12:13 | 47.99276 | 9.98580 | 13596 ft | 189 kts | 345° |
| 2026-04-26 12:13 | 48.00549 | 9.98154 | 14301 ft | 193 kts | 345° |
| 2026-04-26 12:13 | 48.01883 | 9.97711 | 15008 ft | 197 kts | 344° |
| 2026-04-26 12:14 | 48.03213 | 9.97271 | 15728 ft | 200 kts | 344° |
| 2026-04-26 12:14 | 48.04567 | 9.96822 | 16445 ft | 203 kts | 344° |
| 2026-04-26 12:14 | 48.05950 | 9.96362 | 17159 ft | 206 kts | 344° |
| 2026-04-26 12:14 | 48.07357 | 9.95895 | 17869 ft | 209 kts | 344° |
| 2026-04-26 12:15 | 48.08758 | 9.95431 | 18545 ft | 210 kts | 344° |
| 2026-04-26 12:15 | 48.10006 | 9.95017 | 19090 ft | 213 kts | 344° |
| 2026-04-26 12:15 | 48.10754 | 9.94768 | 19414 ft | 214 kts | 343° |
| 2026-04-26 12:15 | 48.12196 | 9.94290 | 20036 ft | 217 kts | 343° |
| 2026-04-26 12:16 | 48.13633 | 9.93812 | 20654 ft | 219 kts | 343° |
| 2026-04-26 12:16 | 48.15127 | 9.93314 | 21292 ft | 221 kts | 343° |
| 2026-04-26 12:16 | 48.16607 | 9.92822 | 21922 ft | 219 kts | 342° |
| 2026-04-26 12:16 | 48.18074 | 9.92334 | 22597 ft | 214 kts | 342° |
| 2026-04-26 12:17 | 48.19510 | 9.91855 | 23193 ft | 215 kts | 341° |
| 2026-04-26 12:17 | 48.20976 | 9.91363 | 23763 ft | 217 kts | 341° |
| 2026-04-26 12:17 | 48.22355 | 9.90604 | 24347 ft | 212 kts | 323° |
| 2026-04-26 12:17 | 48.23632 | 9.89485 | 24926 ft | 214 kts | 323° |
| 2026-04-26 12:18 | 48.24906 | 9.88373 | 25480 ft | 214 kts | 323° |
| 2026-04-26 12:18 | 48.26204 | 9.87237 | 25952 ft | 216 kts | 323° |
| 2026-04-26 12:18 | 48.27491 | 9.86108 | 26407 ft | 217 kts | 323° |
| 2026-04-26 12:18 | 48.28804 | 9.84959 | 26851 ft | 219 kts | 323° |
| 2026-04-26 12:19 | 48.30115 | 9.83808 | 27287 ft | 221 kts | 323° |
| 2026-04-26 12:19 | 48.31450 | 9.82636 | 27736 ft | 222 kts | 323° |
| 2026-04-26 12:19 | 48.32787 | 9.81462 | 28166 ft | 224 kts | 323° |
| 2026-04-26 12:19 | 48.34112 | 9.80298 | 28600 ft | 225 kts | 323° |
| 2026-04-26 12:20 | 48.35468 | 9.79105 | 29032 ft | 227 kts | 323° |
| 2026-04-26 12:20 | 48.36833 | 9.77905 | 29469 ft | 228 kts | 323° |
| 2026-04-26 12:20 | 48.38215 | 9.76687 | 29890 ft | 230 kts | 323° |
| 2026-04-26 12:20 | 48.39597 | 9.75471 | 30303 ft | 231 kts | 323° |
| 2026-04-26 12:21 | 48.40979 | 9.74253 | 30672 ft | 233 kts | 322° |
| 2026-04-26 12:21 | 48.42382 | 9.73014 | 31037 ft | 235 kts | 322° |
| 2026-04-26 12:21 | 48.43778 | 9.71781 | 31328 ft | 232 kts | 323° |
| 2026-04-26 12:21 | 48.45188 | 9.70534 | 31473 ft | 236 kts | 323° |
| 2026-04-26 12:22 | 48.46585 | 9.69301 | 31696 ft | 237 kts | 323° |
| 2026-04-26 12:22 | 48.48013 | 9.68038 | 31935 ft | 237 kts | 323° |
| 2026-04-26 12:22 | 48.49432 | 9.66782 | 32156 ft | 239 kts | 323° |
| 2026-04-26 12:22 | 48.50876 | 9.65503 | 32374 ft | 240 kts | 323° |
| 2026-04-26 12:23 | 48.52339 | 9.64253 | 32622 ft | 241 kts | 327° |
| 2026-04-26 12:23 | 48.53810 | 9.63131 | 32924 ft | 239 kts | 326° |
| 2026-04-26 12:23 | 48.55303 | 9.61984 | 33159 ft | 240 kts | 326° |
| 2026-04-26 12:23 | 48.56786 | 9.60844 | 33475 ft | 242 kts | 326° |
| 2026-04-26 12:24 | 48.58302 | 9.59679 | 33842 ft | 242 kts | 326° |
| 2026-04-26 12:24 | 48.59791 | 9.58535 | 34165 ft | 244 kts | 326° |
| 2026-04-26 12:24 | 48.61356 | 9.57329 | 34211 ft | 257 kts | 327° |
| 2026-04-26 12:25 | 48.64650 | 9.54793 | 34218 ft | 275 kts | 327° |
| 2026-04-26 12:25 | 48.66389 | 9.53454 | 34210 ft | 282 kts | 328° |
| 2026-04-26 12:25 | 48.68142 | 9.52102 | 34217 ft | 288 kts | 328° |
| 2026-04-26 12:25 | 48.69899 | 9.50749 | 34215 ft | 294 kts | 327° |
| 2026-04-26 12:26 | 48.71751 | 9.49319 | 34215 ft | 300 kts | 328° |
| 2026-04-26 12:26 | 48.73611 | 9.47881 | 34212 ft | 304 kts | 328° |
| 2026-04-26 12:26 | 48.77423 | 9.44905 | 34215 ft | 311 kts | 328° |
| 2026-04-26 12:27 | 48.81304 | 9.41868 | 34212 ft | 315 kts | 328° |
| 2026-04-26 12:27 | 48.85216 | 9.38804 | 34221 ft | 317 kts | 328° |
| 2026-04-26 12:28 | 48.89145 | 9.35718 | 34235 ft | 319 kts | 328° |
| 2026-04-26 12:28 | 48.91118 | 9.34502 | 34223 ft | 324 kts | 339° |
| 2026-04-26 12:28 | 48.93221 | 9.33842 | 34218 ft | 329 kts | 349° |
| 2026-04-26 12:29 | 48.97610 | 9.33516 | 34235 ft | 331 kts | 352° |
| 2026-04-26 12:30 | 49.04589 | 9.32978 | 34241 ft | 332 kts | 352° |
| 2026-04-26 12:30 | 49.09240 | 9.32611 | 34251 ft | 333 kts | 352° |
| 2026-04-26 12:31 | 49.15584 | 9.32110 | 34250 ft | 333 kts | 352° |
| 2026-04-26 12:31 | 49.20160 | 9.31747 | 34241 ft | 333 kts | 352° |
| 2026-04-26 12:32 | 49.24828 | 9.31376 | 34252 ft | 333 kts | 352° |
| 2026-04-26 12:33 | 49.31767 | 9.30823 | 34250 ft | 334 kts | 352° |
| 2026-04-26 12:33 | 49.36437 | 9.30656 | 34232 ft | 338 kts | 0° |
| 2026-04-26 12:34 | 49.41079 | 9.31363 | 34247 ft | 337 kts | 0° |
| 2026-04-26 12:34 | 49.45755 | 9.32056 | 34247 ft | 337 kts | 0° |
| 2026-04-26 12:35 | 49.50473 | 9.32754 | 34246 ft | 341 kts | 1° |
| 2026-04-26 12:35 | 49.55195 | 9.33454 | 34245 ft | 344 kts | 0° |
| 2026-04-26 12:36 | 49.60002 | 9.34166 | 34250 ft | 346 kts | 1° |
| 2026-04-26 12:36 | 49.64788 | 9.34880 | 34247 ft | 348 kts | 0° |
| 2026-04-26 12:37 | 49.69613 | 9.35600 | 34256 ft | 348 kts | 0° |
| 2026-04-26 12:37 | 49.74429 | 9.36331 | 34248 ft | 350 kts | 3° |
| 2026-04-26 12:38 | 49.79200 | 9.38035 | 34257 ft | 353 kts | 9° |
| 2026-04-26 12:38 | 49.83986 | 9.39873 | 34253 ft | 353 kts | 9° |
| 2026-04-26 12:39 | 49.88720 | 9.41695 | 34254 ft | 353 kts | 9° |
| 2026-04-26 12:39 | 49.93515 | 9.43540 | 34249 ft | 353 kts | 9° |
| 2026-04-26 12:40 | 49.98252 | 9.45371 | 34252 ft | 353 kts | 9° |
| 2026-04-26 12:40 | 50.03038 | 9.47219 | 34251 ft | 353 kts | 9° |
| 2026-04-26 12:41 | 50.07807 | 9.48835 | 34261 ft | 350 kts | 1° |
| 2026-04-26 12:41 | 50.12156 | 9.49550 | 34252 ft | 350 kts | 1° |
| 2026-04-26 12:42 | 50.17009 | 9.50359 | 34256 ft | 349 kts | 1° |
| 2026-04-26 12:42 | 50.21793 | 9.51162 | 34255 ft | 349 kts | 1° |
| 2026-04-26 12:43 | 50.26614 | 9.51972 | 34260 ft | 349 kts | 1° |
| 2026-04-26 12:43 | 50.31433 | 9.52784 | 34261 ft | 348 kts | 1° |
| 2026-04-26 12:44 | 50.36241 | 9.53595 | 34253 ft | 348 kts | 1° |
| 2026-04-26 12:44 | 50.41052 | 9.54407 | 34258 ft | 347 kts | 1° |
| 2026-04-26 12:45 | 50.45849 | 9.55218 | 34253 ft | 346 kts | 1° |
| 2026-04-26 12:45 | 50.50638 | 9.56030 | 34262 ft | 346 kts | 1° |
| 2026-04-26 12:46 | 50.55413 | 9.56843 | 34253 ft | 346 kts | 1° |
| 2026-04-26 12:46 | 50.60193 | 9.57656 | 34255 ft | 345 kts | 2° |
| 2026-04-26 12:47 | 50.64987 | 9.58475 | 34258 ft | 345 kts | 2° |
| 2026-04-26 12:47 | 50.69737 | 9.59287 | 34264 ft | 345 kts | 2° |
| 2026-04-26 12:48 | 50.74508 | 9.60121 | 34267 ft | 344 kts | 2° |
| 2026-04-26 12:48 | 50.79254 | 9.60982 | 34268 ft | 344 kts | 2° |
| 2026-04-26 12:49 | 50.84034 | 9.61850 | 34263 ft | 344 kts | 2° |
| 2026-04-26 12:49 | 50.88753 | 9.62709 | 34265 ft | 343 kts | 2° |
| 2026-04-26 12:50 | 50.93521 | 9.63578 | 34267 ft | 343 kts | 2° |
| 2026-04-26 12:50 | 50.98246 | 9.64441 | 34261 ft | 343 kts | 2° |
| 2026-04-26 12:51 | 51.02712 | 9.65259 | 34265 ft | 343 kts | 3° |
| 2026-04-26 12:51 | 51.07422 | 9.66123 | 34264 ft | 343 kts | 3° |
| 2026-04-26 12:52 | 51.11317 | 9.66841 | 34266 ft | 342 kts | 4° |
| 2026-04-26 12:52 | 51.16169 | 9.67735 | 34265 ft | 343 kts | 3° |
| 2026-04-26 12:53 | 51.20928 | 9.68616 | 34269 ft | 343 kts | 3° |
| 2026-04-26 12:53 | 51.25685 | 9.69495 | 34265 ft | 343 kts | 3° |
| 2026-04-26 12:54 | 51.30402 | 9.70368 | 34270 ft | 343 kts | 3° |
| 2026-04-26 12:54 | 51.35139 | 9.71248 | 34278 ft | 342 kts | 3° |
| 2026-04-26 12:55 | 51.39849 | 9.72125 | 34282 ft | 342 kts | 3° |
| 2026-04-26 12:55 | 51.44590 | 9.73008 | 34285 ft | 342 kts | 3° |
| 2026-04-26 12:56 | 51.49326 | 9.73894 | 34287 ft | 342 kts | 3° |
| 2026-04-26 12:56 | 51.54030 | 9.74777 | 34290 ft | 342 kts | 2° |
| 2026-04-26 12:57 | 51.58774 | 9.75665 | 34287 ft | 342 kts | 2° |
| 2026-04-26 12:57 | 51.63512 | 9.76558 | 34290 ft | 342 kts | 2° |
| 2026-04-26 12:58 | 51.70599 | 9.77893 | 34291 ft | 343 kts | 2° |
| 2026-04-26 12:58 | 51.75325 | 9.78789 | 34299 ft | 343 kts | 2° |
| 2026-04-26 12:59 | 51.80072 | 9.79688 | 34303 ft | 342 kts | 2° |
| 2026-04-26 12:59 | 51.84778 | 9.80581 | 34295 ft | 342 kts | 2° |
| 2026-04-26 13:00 | 51.89499 | 9.81486 | 34292 ft | 343 kts | 2° |
| 2026-04-26 13:00 | 51.94224 | 9.82401 | 34290 ft | 343 kts | 2° |
| 2026-04-26 13:01 | 51.98964 | 9.83321 | 34291 ft | 343 kts | 2° |
| 2026-04-26 13:01 | 52.03715 | 9.84245 | 34292 ft | 343 kts | 2° |
| 2026-04-26 13:02 | 52.08448 | 9.85166 | 34292 ft | 343 kts | 2° |
| 2026-04-26 13:02 | 52.12948 | 9.86045 | 34293 ft | 343 kts | 2° |
| 2026-04-26 13:03 | 52.17654 | 9.86965 | 34292 ft | 342 kts | 2° |
| 2026-04-26 13:03 | 52.22368 | 9.87891 | 34294 ft | 339 kts | 2° |
| 2026-04-26 13:04 | 52.26985 | 9.89259 | 34294 ft | 335 kts | 10° |
| 2026-04-26 13:04 | 52.29230 | 9.90244 | 34007 ft | 339 kts | 9° |
| 2026-04-26 13:04 | 52.31542 | 9.91258 | 33700 ft | 343 kts | 10° |
| 2026-04-26 13:05 | 52.33839 | 9.92269 | 33336 ft | 347 kts | 10° |
| 2026-04-26 13:05 | 52.36200 | 9.93310 | 32960 ft | 350 kts | 10° |
| 2026-04-26 13:05 | 52.38553 | 9.94348 | 32580 ft | 353 kts | 10° |
| 2026-04-26 13:05 | 52.40922 | 9.95393 | 32193 ft | 354 kts | 10° |
| 2026-04-26 13:06 | 52.43282 | 9.96436 | 31807 ft | 355 kts | 10° |
| 2026-04-26 13:06 | 52.45667 | 9.97493 | 31414 ft | 356 kts | 10° |
| 2026-04-26 13:06 | 52.48072 | 9.98557 | 30799 ft | 361 kts | 10° |
| 2026-04-26 13:06 | 52.50476 | 9.99624 | 30127 ft | 362 kts | 10° |
| 2026-04-26 13:07 | 52.52895 | 10.00699 | 29435 ft | 361 kts | 10° |
| 2026-04-26 13:07 | 52.55291 | 10.01764 | 28744 ft | 358 kts | 10° |
| 2026-04-26 13:07 | 52.57699 | 10.02835 | 28045 ft | 353 kts | 10° |
| 2026-04-26 13:07 | 52.60036 | 10.03879 | 27421 ft | 348 kts | 10° |
| 2026-04-26 13:08 | 52.62330 | 10.04902 | 26904 ft | 340 kts | 10° |
| 2026-04-26 13:08 | 52.64575 | 10.05902 | 26446 ft | 333 kts | 10° |
| 2026-04-26 13:08 | 52.66775 | 10.06887 | 26031 ft | 325 kts | 10° |
| 2026-04-26 13:08 | 52.68944 | 10.07858 | 25640 ft | 318 kts | 10° |
| 2026-04-26 13:09 | 52.71062 | 10.08806 | 25270 ft | 313 kts | 9° |
| 2026-04-26 13:09 | 52.73146 | 10.09738 | 24945 ft | 309 kts | 9° |
| 2026-04-26 13:09 | 52.75194 | 10.10657 | 24546 ft | 308 kts | 9° |
| 2026-04-26 13:09 | 52.77244 | 10.11576 | 24316 ft | 301 kts | 8° |
| 2026-04-26 13:10 | 52.79253 | 10.11829 | 24305 ft | 282 kts | 355° |
| 2026-04-26 13:10 | 52.81228 | 10.11897 | 23993 ft | 283 kts | 355° |
| 2026-04-26 13:10 | 52.83204 | 10.11959 | 23518 ft | 288 kts | 355° |
| 2026-04-26 13:10 | 52.85219 | 10.12024 | 23025 ft | 292 kts | 355° |
| 2026-04-26 13:11 | 52.87259 | 10.12090 | 22526 ft | 295 kts | 356° |
| 2026-04-26 13:11 | 52.89302 | 10.12158 | 22033 ft | 296 kts | 356° |
| 2026-04-26 13:11 | 52.91356 | 10.12226 | 21544 ft | 297 kts | 356° |
| 2026-04-26 13:11 | 52.93413 | 10.12297 | 21051 ft | 297 kts | 356° |
| 2026-04-26 13:12 | 52.95465 | 10.12363 | 20564 ft | 296 kts | 356° |
| 2026-04-26 13:12 | 52.97523 | 10.12432 | 20078 ft | 295 kts | 356° |
| 2026-04-26 13:12 | 52.99564 | 10.12500 | 19592 ft | 294 kts | 356° |
| 2026-04-26 13:12 | 53.01604 | 10.12567 | 19103 ft | 292 kts | 356° |
| 2026-04-26 13:13 | 53.03603 | 10.12633 | 18624 ft | 291 kts | 356° |
| 2026-04-26 13:13 | 53.05636 | 10.12700 | 18143 ft | 289 kts | 356° |
| 2026-04-26 13:13 | 53.07630 | 10.12766 | 17675 ft | 288 kts | 356° |
| 2026-04-26 13:13 | 53.09629 | 10.12832 | 17194 ft | 286 kts | 356° |
| 2026-04-26 13:14 | 53.11454 | 10.12894 | 16762 ft | 284 kts | 356° |
| 2026-04-26 13:14 | 53.13401 | 10.12959 | 16293 ft | 282 kts | 356° |
| 2026-04-26 13:14 | 53.15366 | 10.13022 | 15812 ft | 280 kts | 357° |
| 2026-04-26 13:14 | 53.17307 | 10.13088 | 15339 ft | 278 kts | 357° |
| 2026-04-26 13:15 | 53.19237 | 10.13154 | 14870 ft | 276 kts | 357° |
| 2026-04-26 13:15 | 53.21156 | 10.13216 | 14404 ft | 274 kts | 357° |
| 2026-04-26 13:15 | 53.23034 | 10.13280 | 13939 ft | 272 kts | 357° |
| 2026-04-26 13:15 | 53.24280 | 10.13321 | 13631 ft | 270 kts | 357° |
| 2026-04-26 13:16 | 53.26791 | 10.13405 | 12994 ft | 268 kts | 358° |
| 2026-04-26 13:16 | 53.28653 | 10.13467 | 12527 ft | 266 kts | 358° |
| 2026-04-26 13:16 | 53.30486 | 10.13529 | 12074 ft | 265 kts | 358° |
| 2026-04-26 13:16 | 53.32312 | 10.13590 | 11609 ft | 263 kts | 358° |
| 2026-04-26 13:17 | 53.35953 | 10.13713 | 10683 ft | 260 kts | 358° |
| 2026-04-26 13:17 | 53.37730 | 10.14049 | 10207 ft | 262 kts | 10° |
| 2026-04-26 13:18 | 53.40922 | 10.16849 | 9580 ft | 257 kts | 37° |
| 2026-04-26 13:18 | 53.42102 | 10.19080 | 9416 ft | 253 kts | 48° |
| 2026-04-26 13:18 | 53.44170 | 10.23608 | 9403 ft | 244 kts | 47° |
| 2026-04-26 13:19 | 53.45211 | 10.25882 | 9399 ft | 245 kts | 47° |
| 2026-04-26 13:19 | 53.46241 | 10.28136 | 9316 ft | 244 kts | 47° |
| 2026-04-26 13:19 | 53.47275 | 10.30399 | 9228 ft | 243 kts | 47° |
| 2026-04-26 13:19 | 53.48297 | 10.32637 | 9142 ft | 242 kts | 47° |
| 2026-04-26 13:20 | 53.49320 | 10.34881 | 9062 ft | 241 kts | 47° |
| 2026-04-26 13:20 | 53.50333 | 10.37103 | 8979 ft | 241 kts | 47° |
| 2026-04-26 13:20 | 53.51349 | 10.39335 | 8869 ft | 241 kts | 47° |
| 2026-04-26 13:20 | 53.52377 | 10.41592 | 8651 ft | 245 kts | 48° |
| 2026-04-26 13:21 | 53.53413 | 10.43875 | 8510 ft | 246 kts | 48° |
| 2026-04-26 13:21 | 53.54103 | 10.45394 | 8420 ft | 245 kts | 48° |
| 2026-04-26 13:21 | 53.55470 | 10.48408 | 8264 ft | 244 kts | 48° |
| 2026-04-26 13:21 | 53.56500 | 10.50682 | 8159 ft | 243 kts | 48° |
| 2026-04-26 13:22 | 53.57516 | 10.52928 | 8058 ft | 242 kts | 48° |
| 2026-04-26 13:22 | 53.58527 | 10.55165 | 7967 ft | 240 kts | 48° |
| 2026-04-26 13:22 | 53.59546 | 10.57417 | 7873 ft | 240 kts | 48° |
| 2026-04-26 13:22 | 53.60553 | 10.59649 | 7774 ft | 239 kts | 48° |
| 2026-04-26 13:23 | 53.61544 | 10.61845 | 7683 ft | 238 kts | 48° |
| 2026-04-26 13:23 | 53.62549 | 10.64073 | 7595 ft | 238 kts | 49° |
| 2026-04-26 13:23 | 53.63542 | 10.66282 | 7565 ft | 235 kts | 49° |
| 2026-04-26 13:23 | 53.64477 | 10.68545 | 7504 ft | 236 kts | 57° |
| 2026-04-26 13:24 | 53.65300 | 10.70938 | 7257 ft | 238 kts | 56° |
| 2026-04-26 13:24 | 53.66134 | 10.73360 | 7023 ft | 239 kts | 57° |
| 2026-04-26 13:24 | 53.66969 | 10.75788 | 6779 ft | 239 kts | 57° |
| 2026-04-26 13:24 | 53.67795 | 10.78192 | 6552 ft | 238 kts | 57° |
| 2026-04-26 13:25 | 53.68620 | 10.80589 | 6335 ft | 238 kts | 57° |
| 2026-04-26 13:25 | 53.69446 | 10.83000 | 6207 ft | 233 kts | 57° |
| 2026-04-26 13:25 | 53.70249 | 10.85342 | 6141 ft | 227 kts | 57° |
| 2026-04-26 13:25 | 53.71035 | 10.87638 | 6049 ft | 224 kts | 56° |
| 2026-04-26 13:26 | 53.71806 | 10.89882 | 5952 ft | 224 kts | 57° |
| 2026-04-26 13:26 | 53.72590 | 10.92178 | 5778 ft | 225 kts | 57° |
| 2026-04-26 13:26 | 53.73367 | 10.94449 | 5595 ft | 226 kts | 57° |
| 2026-04-26 13:26 | 53.74157 | 10.96763 | 5402 ft | 228 kts | 57° |
| 2026-04-26 13:27 | 53.74947 | 10.99082 | 5212 ft | 229 kts | 57° |
| 2026-04-26 13:27 | 53.75723 | 11.01360 | 4996 ft | 219 kts | 58° |
| 2026-04-26 13:27 | 53.76466 | 11.03542 | 4792 ft | 210 kts | 58° |
| 2026-04-26 13:27 | 53.77180 | 11.05642 | 4606 ft | 202 kts | 57° |
| 2026-04-26 13:28 | 53.77869 | 11.07668 | 4420 ft | 196 kts | 57° |
| 2026-04-26 13:28 | 53.78537 | 11.09639 | 4246 ft | 191 kts | 57° |
| 2026-04-26 13:28 | 53.79219 | 11.11387 | 4203 ft | 167 kts | 37° |
| 2026-04-26 13:28 | 53.80245 | 11.11954 | 4168 ft | 155 kts | 353° |
| 2026-04-26 13:29 | 53.81291 | 11.11571 | 4053 ft | 152 kts | 343° |
| 2026-04-26 13:29 | 53.81959 | 11.11256 | 3967 ft | 147 kts | 341° |
| 2026-04-26 13:29 | 53.83133 | 11.10659 | 3803 ft | 123 kts | 340° |
| 2026-04-26 13:29 | 53.83961 | 11.10218 | 3726 ft | 126 kts | 339° |
| 2026-04-26 13:30 | 53.84801 | 11.09766 | 3643 ft | 128 kts | 339° |
| 2026-04-26 13:30 | 53.85645 | 11.09312 | 3566 ft | 124 kts | 339° |
| 2026-04-26 13:30 | 53.86451 | 11.08876 | 3554 ft | 119 kts | 337° |
| 2026-04-26 13:30 | 53.87019 | 11.07933 | 3580 ft | 118 kts | 288° |
| 2026-04-26 13:31 | 53.87008 | 11.06545 | 3669 ft | 121 kts | 258° |
| 2026-04-26 13:31 | 53.86806 | 11.05116 | 3690 ft | 127 kts | 255° |
| 2026-04-26 13:31 | 53.86563 | 11.03673 | 3684 ft | 124 kts | 254° |
| 2026-04-26 13:31 | 53.86263 | 11.02322 | 3640 ft | 121 kts | 255° |
| 2026-04-26 13:32 | 53.86032 | 11.00918 | 3492 ft | 125 kts | 254° |
| 2026-04-26 13:32 | 53.85787 | 10.99537 | 3323 ft | 122 kts | 253° |
| 2026-04-26 13:32 | 53.85531 | 10.98147 | 3157 ft | 122 kts | 253° |
| 2026-04-26 13:32 | 53.85276 | 10.96785 | 2992 ft | 123 kts | 253° |
| 2026-04-26 13:33 | 53.85013 | 10.95390 | 2819 ft | 124 kts | 253° |
| 2026-04-26 13:33 | 53.84752 | 10.94003 | 2652 ft | 125 kts | 253° |
| 2026-04-26 13:33 | 53.84487 | 10.92601 | 2480 ft | 125 kts | 253° |
| 2026-04-26 13:33 | 53.84222 | 10.91204 | 2304 ft | 125 kts | 252° |
| 2026-04-26 13:34 | 53.83953 | 10.89797 | 2126 ft | 124 kts | 252° |
| 2026-04-26 13:34 | 53.83690 | 10.88414 | 1949 ft | 123 kts | 252° |
| 2026-04-26 13:34 | 53.83429 | 10.87047 | 1778 ft | 122 kts | 252° |
| 2026-04-26 13:34 | 53.83256 | 10.86140 | 1667 ft | 122 kts | 252° |
| 2026-04-26 13:35 | 53.82905 | 10.84302 | 1442 ft | 122 kts | 252° |
| 2026-04-26 13:35 | 53.82645 | 10.82942 | 1278 ft | 123 kts | 253° |
| 2026-04-26 13:35 | 53.82382 | 10.81562 | 1109 ft | 123 kts | 252° |
| 2026-04-26 13:35 | 53.82121 | 10.80203 | 933 ft | 117 kts | 253° |
| 2026-04-26 13:36 | 53.81879 | 10.78938 | 772 ft | 109 kts | 253° |
| 2026-04-26 13:36 | 53.81646 | 10.77720 | 634 ft | 109 kts | 253° |
| 2026-04-26 13:36 | 53.81407 | 10.76511 | 513 ft | 108 kts | 253° |
| 2026-04-26 13:36 | 53.81176 | 10.75299 | 365 ft | 110 kts | 253° |
| 2026-04-26 13:37 | 53.80934 | 10.74061 | 196 ft | 108 kts | 254° |
| 2026-04-26 13:37 | 53.80718 | 10.72911 | 47 ft | 98 kts | 253° |
| 2026-04-26 13:37 | 53.80555 | 10.72004 | 47 ft | 55 kts | 252° |
| 2026-04-26 13:37 | 53.80465 | 10.71544 | 47 ft | 33 kts | 251° |
| 2026-04-26 13:38 | 53.80385 | 10.71172 | 47 ft | 33 kts | 250° |
| 2026-04-26 13:38 | 53.80315 | 10.70796 | 47 ft | 26 kts | 254° |
| 2026-04-26 13:38 | 53.80339 | 10.70574 | 48 ft | 17 kts | 324° |
| 2026-04-26 13:38 | 53.80392 | 10.70508 | 48 ft | 6 kts | 323° |
| 2026-04-26 13:39 | 53.80444 | 10.70441 | 48 ft | 12 kts | 326° |
| 2026-04-26 13:39 | 53.80506 | 10.70369 | 48 ft | 12 kts | 327° |
| 2026-04-26 13:39 | 53.80556 | 10.70330 | 48 ft | 9 kts | 37° |
| 2026-04-26 13:39 | 53.80602 | 10.70421 | 48 ft | 11 kts | 105° |
| 2026-04-26 13:40 | 53.80564 | 10.70499 | 48 ft | 3 kts | 144° |
| 2026-04-26 13:40 | 53.80553 | 10.70500 | 48 ft | 2 kts | 207° |
| 2026-04-26 13:40 | 53.80539 | 10.70476 | 48 ft | 3 kts | 248° |
| 2026-04-26 13:40 | 53.80546 | 10.70462 | 48 ft | 2 kts | 27° |
| 2026-04-26 13:41 | 53.80548 | 10.70465 | 48 ft | 0 kts | 43° |